Time;durP1;ratioP1;P1;durP2;ratioP2;P2;SDS_P1;SDS_P2;PMS_P1;PMS_P2;Temp;Humidity;BMP_temperature;BMP_pressure;BME280_temperature;BME280_humidity;BME280_pressure;Samples;Min_cycle;Max_cycle;Signal;HPM_P1;HPM_P2
2020/12/20 00:01:47;;;;;;;9.57;5.38;;;;;;;9.02;100.00;101198.44;5036126;28;20040;-88
2020/12/20 00:04:13;;;;;;;8.35;5.10;;;;;;;8.98;99.75;101197.03;5019385;28;20030;-87
2020/12/20 00:06:41;;;;;;;6.65;4.43;;;;;;;8.95;100.00;101194.66;5035094;28;20066;-86
2020/12/20 00:09:13;;;;;;;7.38;4.82;;;;;;;8.97;100.00;101198.84;5032614;28;20405;-87
2020/12/20 00:11:43;;;;;;;8.20;5.10;;;;;;;8.96;99.83;101196.31;5017541;28;20474;-86
2020/12/20 00:14:27;;;;;;;7.85;4.80;;;;;;;8.92;99.93;101192.22;5019668;28;20029;-85
2020/12/20 00:17:02;;;;;;;9.23;5.03;;;;;;;8.88;99.93;101189.00;5011568;28;20069;-85
2020/12/20 00:19:28;;;;;;;8.68;5.10;;;;;;;8.86;100.00;101192.81;5031609;28;20088;-86
2020/12/20 00:22:03;;;;;;;11.23;5.80;;;;;;;8.85;100.00;101191.97;5022541;28;20083;-86
2020/12/20 00:24:30;;;;;;;8.68;4.65;;;;;;;8.86;100.00;101187.47;5025013;28;20038;-86
2020/12/20 00:26:59;;;;;;;8.65;5.13;;;;;;;8.88;99.73;101199.72;5031524;28;20053;-88
2020/12/20 00:29:29;;;;;;;;;;;;;;;8.89;99.53;101197.88;5006554;28;20049;-87
2020/12/20 00:31:56;;;;;;;9.10;5.63;;;;;;;8.79;99.90;101198.75;5032267;28;19996;-89
2020/12/20 00:34:22;;;;;;;10.07;5.32;;;;;;;8.79;99.84;101200.56;5014641;28;20048;-86
2020/12/20 00:36:49;;;;;;;7.95;4.93;;;;;;;8.80;99.95;101203.13;5017618;28;20131;-85
2020/12/20 00:39:16;;;;;;;8.02;5.18;;;;;;;8.81;99.91;101204.81;5016439;28;20084;-86
2020/12/20 00:41:42;;;;;;;6.93;4.78;;;;;;;8.84;99.16;101209.03;5007190;28;20068;-86
2020/12/20 00:44:08;;;;;;;8.52;4.85;;;;;;;8.80;99.43;101208.47;5031984;28;20097;-86
2020/12/20 00:46:38;;;;;;;8.35;4.93;;;;;;;8.77;99.31;101207.91;5032247;28;20490;-87
2020/12/20 00:49:05;;;;;;;8.30;4.50;;;;;;;8.74;99.41;101198.31;5032797;28;20037;-85
2020/12/20 00:51:33;;;;;;;8.10;4.25;;;;;;;8.74;99.50;101202.81;5013056;28;20544;-89
2020/12/20 00:53:59;;;;;;;9.07;4.95;;;;;;;8.72;99.33;101194.97;5014447;28;20394;-89
2020/12/20 00:56:25;;;;;;;8.38;5.22;;;;;;;8.69;99.16;101195.25;5038199;28;20047;-87
2020/12/20 00:58:50;;;;;;;9.05;5.15;;;;;;;8.65;99.25;101193.81;5033232;28;20041;-86
2020/12/20 01:01:16;;;;;;;9.88;5.07;;;;;;;8.64;99.45;101196.66;5029718;28;20128;-85
2020/12/20 01:03:42;;;;;;;9.52;4.57;;;;;;;8.64;99.87;101186.78;5019856;28;20037;-89
2020/12/20 01:06:14;;;;;;;7.45;4.68;;;;;;;8.59;99.29;101187.22;5037547;28;20034;-86
2020/12/20 01:08:41;;;;;;;8.80;5.00;;;;;;;8.56;99.47;101194.69;5040692;28;20136;-86
2020/12/20 01:11:07;;;;;;;10.10;5.07;;;;;;;8.50;99.41;101184.56;5034029;28;20091;-90
2020/12/20 01:13:47;;;;;;;9.73;5.10;;;;;;;8.46;99.75;101180.44;5033640;28;20037;-85
2020/12/20 01:16:17;;;;;;;11.10;5.47;;;;;;;8.40;100.00;101186.38;5035005;28;20496;-87
2020/12/20 01:18:43;;;;;;;11.52;5.63;;;;;;;8.36;100.00;101183.09;5032564;28;20437;-87
2020/12/20 01:21:09;;;;;;;8.77;5.70;;;;;;;8.33;100.00;101178.88;5015369;28;20056;-86
2020/12/20 01:23:34;;;;;;;12.55;6.20;;;;;;;8.33;100.00;101178.03;5038978;28;20041;-85
2020/12/20 01:26:00;;;;;;;11.15;6.25;;;;;;;8.28;100.00;101181.13;5000363;28;20072;-85
2020/12/20 01:28:27;;;;;;;13.82;6.60;;;;;;;8.29;100.00;101190.84;5033550;28;20044;-86
2020/12/20 01:30:52;;;;;;;12.18;7.10;;;;;;;8.27;100.00;101195.47;5038169;28;20045;-86
2020/12/20 01:33:18;;;;;;;10.60;6.88;;;;;;;8.28;100.00;101191.81;5037663;28;20037;-85
2020/12/20 01:35:43;;;;;;;9.65;6.70;;;;;;;8.30;100.00;101208.56;5016992;28;20065;-86
2020/12/20 01:38:08;;;;;;;12.80;6.75;;;;;;;8.32;100.00;101206.59;5013786;28;20037;-84
2020/12/20 01:40:34;;;;;;;11.27;7.28;;;;;;;8.35;100.00;101208.16;5025408;28;20034;-86
2020/12/20 01:42:59;;;;;;;10.43;7.43;;;;;;;8.35;100.00;101195.63;5038024;28;20045;-85
2020/12/20 01:45:25;;;;;;;11.38;6.85;;;;;;;8.38;99.86;101199.03;5027355;28;20034;-87
2020/12/20 01:47:50;;;;;;;14.68;8.05;;;;;;;8.39;99.93;101203.41;5035232;28;20069;-88
2020/12/20 01:50:16;;;;;;;13.40;8.15;;;;;;;8.37;99.48;101203.50;5032606;28;20049;-86
2020/12/20 01:52:42;;;;;;;13.63;7.50;;;;;;;8.39;99.74;101208.75;5030490;28;20049;-84
2020/12/20 01:55:07;;;;;;;12.15;7.90;;;;;;;8.39;99.34;101208.75;5046332;28;20059;-83
2020/12/20 01:57:33;;;;;;;12.55;6.93;;;;;;;8.42;99.07;101203.97;5034349;28;20474;-85
2020/12/20 01:59:59;;;;;;;14.75;7.43;;;;;;;8.45;99.20;101209.03;5035902;28;20034;-87
2020/12/20 02:02:25;;;;;;;10.63;7.18;;;;;;;8.48;98.82;101200.72;5040432;28;20041;-85
2020/12/20 02:04:50;;;;;;;12.07;7.90;;;;;;;8.48;98.55;101200.72;5038961;28;20075;-89
2020/12/20 02:07:16;;;;;;;14.13;7.32;;;;;;;8.51;98.47;101194.25;5036629;28;20666;-85
2020/12/20 02:09:44;;;;;;;11.18;6.65;;;;;;;8.51;98.54;101196.94;5040891;28;20118;-84
2020/12/20 02:12:10;;;;;;;10.40;6.90;;;;;;;8.51;98.21;101207.63;5036573;28;20036;-85
2020/12/20 02:14:35;;;;;;;12.48;7.63;;;;;;;8.51;98.23;101210.28;5002841;28;20125;-88
2020/12/20 02:17:00;;;;;;;13.35;7.03;;;;;;;8.50;98.32;101211.28;5023768;28;20040;-85
2020/12/20 02:19:26;;;;;;;12.65;7.38;;;;;;;8.50;98.31;101213.97;5032992;28;20430;-85
2020/12/20 02:21:52;;;;;;;13.75;8.00;;;;;;;8.46;98.35;101199.16;5033696;28;20044;-88
2020/12/20 02:24:18;;;;;;;12.77;8.15;;;;;;;8.46;98.26;101207.19;5037346;28;20491;-86
2020/12/20 02:26:44;;;;;;;12.48;7.05;;;;;;;8.47;98.24;101195.53;5035988;28;20053;-86
2020/12/20 02:29:10;;;;;;;15.23;7.93;;;;;;;8.46;98.27;101199.16;5023525;28;20036;-84
2020/12/20 02:31:35;;;;;;;14.48;8.15;;;;;;;8.44;98.08;101199.31;5022743;28;20042;-87
2020/12/20 02:34:01;;;;;;;12.75;7.65;;;;;;;8.42;98.27;101195.94;5036012;28;20056;-85
2020/12/20 02:36:27;;;;;;;10.85;7.88;;;;;;;8.43;98.45;101199.44;5028815;28;20049;-85
2020/12/20 02:38:53;;;;;;;12.25;7.70;;;;;;;8.42;98.34;101192.44;5037782;28;20029;-85
2020/12/20 02:41:18;;;;;;;14.40;8.48;;;;;;;8.40;98.49;101194.38;5036132;28;20449;-86
2020/12/20 02:43:44;;;;;;;14.07;7.93;;;;;;;8.38;98.86;101186.50;5047049;28;20037;-85
2020/12/20 02:46:09;;;;;;;11.07;6.93;;;;;;;8.39;99.09;101190.03;5036263;28;20033;-86
2020/12/20 02:48:35;;;;;;;11.10;7.45;;;;;;;8.41;98.83;101191.59;5037779;28;20041;-85
2020/12/20 02:51:00;;;;;;;12.00;7.75;;;;;;;8.43;98.74;101202.13;5010722;28;20404;-84
2020/12/20 02:53:26;;;;;;;10.65;7.38;;;;;;;8.42;98.98;101203.97;5028307;28;20025;-87
2020/12/20 02:55:51;;;;;;;11.90;7.07;;;;;;;8.43;98.90;101202.13;5032774;28;20053;-85
2020/12/20 02:58:17;;;;;;;10.98;7.45;;;;;;;8.44;99.08;101190.47;5033882;28;20036;-84
2020/12/20 03:00:43;;;;;;;14.18;7.70;;;;;;;8.45;98.91;101201.00;5016205;28;20053;-85
2020/12/20 03:03:09;;;;;;;10.27;6.75;;;;;;;8.46;99.08;101204.53;5014494;28;20041;-86
2020/12/20 03:05:35;;;;;;;15.15;6.88;;;;;;;8.48;98.91;101205.22;5025404;28;20041;-85
2020/12/20 03:08:00;;;;;;;10.75;6.25;;;;;;;8.50;98.70;101195.25;5036920;28;20123;-88
2020/12/20 03:10:26;;;;;;;12.93;6.97;;;;;;;8.52;98.79;101195.97;5039403;28;20038;-89
2020/12/20 03:12:51;;;;;;;11.20;6.82;;;;;;;8.52;98.80;101190.63;5004129;28;20048;-87
2020/12/20 03:15:18;;;;;;;12.27;7.03;;;;;;;8.52;98.57;101195.97;5022343;28;20039;-87
2020/12/20 03:17:43;;;;;;;12.63;7.05;;;;;;;8.54;98.31;101199.31;5043577;28;20065;-83
2020/12/20 03:20:09;;;;;;;10.60;6.65;;;;;;;8.51;98.65;101184.38;5020592;28;20045;-85
2020/12/20 03:22:34;;;;;;;11.98;7.15;;;;;;;8.55;98.48;101183.13;5030240;28;20100;-86
2020/12/20 03:25:00;;;;;;;13.88;6.55;;;;;;;8.56;98.61;101183.97;5024321;28;20061;-89
2020/12/20 03:27:25;;;;;;;10.77;7.05;;;;;;;8.57;98.33;101186.53;5019168;28;20037;-90
2020/12/20 03:29:51;;;;;;;13.45;7.55;;;;;;;8.56;98.13;101183.97;5040853;28;20038;-85
2020/12/20 03:32:16;;;;;;;12.80;6.80;;;;;;;8.55;98.39;101187.66;5052040;28;20040;-84
2020/12/20 03:34:43;;;;;;;12.13;7.10;;;;;;;8.51;98.70;101187.06;5014674;28;20036;-87
2020/12/20 03:37:12;;;;;;;11.40;6.97;;;;;;;8.49;98.98;101193.56;5025090;28;20040;-91
2020/12/20 03:39:39;;;;;;;12.40;6.65;;;;;;;8.53;99.14;101189.63;5038754;28;20126;-90
2020/12/20 03:42:05;;;;;;;11.18;6.38;;;;;;;8.55;98.57;101193.84;5024803;28;20128;-90
2020/12/20 03:44:31;;;;;;;11.90;7.10;;;;;;;8.57;98.47;101185.66;5032607;28;20057;-84
2020/12/20 03:46:56;;;;;;;14.10;7.15;;;;;;;8.57;98.56;101188.34;5034801;28;20049;-86
2020/12/20 03:49:27;;;;;;;12.57;7.50;;;;;;;8.57;98.84;101193.69;5026340;28;20042;-86
2020/12/20 03:52:02;;;;;;;12.98;7.22;;;;;;;8.52;98.58;101201.31;5033796;28;20045;-84
2020/12/20 03:54:28;;;;;;;9.60;6.53;;;;;;;8.51;98.67;101197.75;5018365;28;20042;-86
2020/12/20 03:56:56;;;;;;;10.73;6.78;;;;;;;8.51;99.28;101196.94;5023957;28;20098;-84
2020/12/20 03:59:22;;;;;;;11.07;6.70;;;;;;;8.51;98.88;101187.06;5001986;28;20089;-86
2020/12/20 04:01:47;;;;;;;10.27;7.00;;;;;;;8.52;98.78;101198.63;5017772;28;20079;-84
2020/12/20 04:04:13;;;;;;;15.32;6.68;;;;;;;8.55;98.83;101193.00;5000365;28;20068;-82
2020/12/20 04:06:38;;;;;;;12.25;7.13;;;;;;;8.53;98.78;101189.63;5020520;28;20050;-87
2020/12/20 04:09:03;;;;;;;10.38;6.72;;;;;;;8.53;98.91;101193.13;5012438;28;20038;-84
2020/12/20 04:11:30;;;;;;;10.73;6.63;;;;;;;8.57;98.82;101201.72;5028934;28;20049;-84
2020/12/20 04:13:59;;;;;;;14.35;7.00;;;;;;;8.57;98.72;101207.94;5031722;28;20075;-90
2020/12/20 04:16:25;;;;;;;10.32;6.15;;;;;;;8.59;98.71;101208.59;5016671;28;20128;-84
2020/12/20 04:18:50;;;;;;;11.60;6.55;;;;;;;8.63;98.78;101202.97;5019112;28;20056;-88
2020/12/20 04:21:16;;;;;;;11.70;6.45;;;;;;;8.63;98.38;101193.16;5001571;28;20542;-86
2020/12/20 04:23:41;;;;;;;11.88;6.53;;;;;;;8.63;98.81;101201.16;5021427;28;20049;-82
2020/12/20 04:26:07;;;;;;;11.27;6.28;;;;;;;8.66;98.84;101206.22;5038659;28;20052;-86
2020/12/20 04:28:33;;;;;;;11.55;6.25;;;;;;;8.65;98.38;101198.34;4998225;28;20132;-86
2020/12/20 04:30:58;;;;;;;9.65;6.00;;;;;;;8.66;98.53;101205.38;5029159;28;20065;-86
2020/12/20 04:33:23;;;;;;;9.60;5.50;;;;;;;8.66;98.67;101205.38;5039024;28;20037;-88
2020/12/20 04:35:50;;;;;;;11.02;6.32;;;;;;;8.67;98.87;101213.25;5040313;28;20493;-87
2020/12/20 04:38:17;;;;;;;9.77;5.90;;;;;;;8.68;98.85;101204.25;5024376;28;20382;-86
2020/12/20 04:40:44;;;;;;;11.43;6.22;;;;;;;8.70;98.62;101207.63;5017901;28;20045;-86
2020/12/20 04:43:14;;;;;;;10.98;6.75;;;;;;;8.69;98.78;101199.72;5034162;28;20061;-84
2020/12/20 04:45:43;;;;;;;11.43;6.45;;;;;;;8.68;98.69;101201.56;5032116;28;20053;-83
2020/12/20 04:48:10;;;;;;;9.48;6.10;;;;;;;8.70;98.78;101204.13;5027851;28;20064;-87
2020/12/20 04:50:37;;;;;;;10.75;6.47;;;;;;;8.70;98.92;101204.13;5030608;28;20524;-88
2020/12/20 04:53:03;;;;;;;10.02;5.97;;;;;;;8.70;98.82;101188.06;5023729;28;20037;-88
2020/12/20 04:55:28;;;;;;;10.38;5.65;;;;;;;8.72;98.77;101199.47;5006486;28;20127;-86
2020/12/20 04:57:55;;;;;;;10.75;6.07;;;;;;;8.71;98.53;101193.25;5014476;28;20080;-86
2020/12/20 05:00:21;;;;;;;7.68;5.80;;;;;;;8.71;98.84;101197.75;5032688;28;20068;-88
2020/12/20 05:02:47;;;;;;;10.18;6.03;;;;;;;8.70;98.76;101196.94;5028275;28;20498;-83
2020/12/20 05:05:13;;;;;;;11.30;6.57;;;;;;;8.68;98.85;101201.56;5036512;28;20045;-86
2020/12/20 05:07:38;;;;;;;9.82;5.97;;;;;;;8.67;98.91;101199.88;5034047;28;20049;-87
2020/12/20 05:10:07;;;;;;;10.48;6.70;;;;;;;8.68;98.91;101198.88;5022801;28;20037;-87
2020/12/20 05:12:34;;;;;;;;;;;;;;;8.68;98.76;101193.53;5024043;28;20037;-87
2020/12/20 05:15:17;;;;;;;8.95;6.18;;;;;;;8.57;99.40;101191.88;5029507;28;19948;-84
2020/12/20 05:17:42;;;;;;;10.52;6.40;;;;;;;8.59;99.63;101189.03;5040048;28;20033;-87
2020/12/20 05:20:14;;;;;;;9.90;6.38;;;;;;;8.60;99.78;101196.06;5028203;28;20038;-88
2020/12/20 05:22:40;;;;;;;12.10;6.35;;;;;;;8.63;99.58;101195.81;5029804;28;20073;-87
2020/12/20 05:25:16;;;;;;;11.40;6.28;;;;;;;8.63;99.42;101200.31;5034104;28;20104;-85
2020/12/20 05:27:41;;;;;;;9.77;6.22;;;;;;;8.64;99.52;101196.66;5033639;28;20176;-85
2020/12/20 05:30:12;;;;;;;12.00;6.13;;;;;;;8.65;99.50;101201.00;5006467;28;20075;-86
2020/12/20 05:32:43;;;;;;;9.20;6.70;;;;;;;8.63;99.35;101198.50;5033568;28;20045;-88
2020/12/20 05:35:12;;;;;;;10.82;6.80;;;;;;;8.61;99.57;101192.44;5037121;28;20049;-89
2020/12/20 05:37:38;;;;;;;13.52;6.70;;;;;;;8.60;99.74;101190.72;5019729;28;20040;-88
2020/12/20 05:40:07;;;;;;;10.15;6.53;;;;;;;8.59;99.45;101194.41;5021361;28;20030;-85
2020/12/20 05:42:32;;;;;;;9.38;6.03;;;;;;;8.59;99.81;101199.75;5040051;28;20120;-84
2020/12/20 05:45:18;;;;;;;11.30;6.88;;;;;;;8.58;100.00;101204.25;5040560;28;20057;-85
2020/12/20 05:47:44;;;;;;;11.23;6.75;;;;;;;8.59;99.88;101194.41;5029353;28;20050;-84
2020/12/20 05:50:12;;;;;;;11.10;6.65;;;;;;;8.59;100.00;101211.28;5035168;28;20029;-85
2020/12/20 05:52:40;;;;;;;12.52;6.45;;;;;;;8.59;100.00;101195.22;5041867;28;20045;-88
2020/12/20 05:55:13;;;;;;;12.95;6.38;;;;;;;8.60;99.82;101201.41;5012735;28;20042;-83
2020/12/20 05:57:39;;;;;;;12.13;6.75;;;;;;;8.59;99.82;101199.75;5011853;28;20081;-87
2020/12/20 06:00:08;;;;;;;11.23;6.60;;;;;;;8.58;99.75;101192.72;5032126;28;20105;-85
2020/12/20 06:02:35;;;;;;;8.73;7.03;;;;;;;8.58;99.92;101198.06;5031952;28;20101;-84
2020/12/20 06:05:03;;;;;;;8.82;6.78;;;;;;;8.57;100.00;101201.72;5016261;28;20060;-85
2020/12/20 06:07:29;;;;;;;12.30;6.95;;;;;;;8.56;100.00;101205.38;5029485;28;20583;-84
2020/12/20 06:09:58;;;;;;;11.77;6.95;;;;;;;8.55;100.00;101206.38;5016520;28;20050;-87
2020/12/20 06:12:26;;;;;;;13.50;7.80;;;;;;;8.56;100.00;101216.06;5039656;28;20037;-88
2020/12/20 06:14:53;;;;;;;11.20;7.20;;;;;;;8.55;100.00;101215.25;5020848;28;20037;-85
2020/12/20 06:17:24;;;;;;;11.45;7.45;;;;;;;8.56;100.00;101222.28;5019795;28;20560;-85
2020/12/20 06:20:02;;;;;;;10.18;6.65;;;;;;;8.56;100.00;101218.75;5034365;28;20473;-87
2020/12/20 06:22:33;;;;;;;13.05;7.00;;;;;;;8.57;100.00;101223.97;5033477;28;20052;-84
2020/12/20 06:25:02;;;;;;;9.48;6.68;;;;;;;8.59;99.99;101231.84;5019821;28;20077;-86
2020/12/20 06:27:30;;;;;;;10.77;6.65;;;;;;;8.61;100.00;101240.59;5028538;28;20062;-86
2020/12/20 06:29:57;;;;;;;11.45;6.75;;;;;;;8.59;100.00;101223.81;5014128;28;20077;-89
2020/12/20 06:32:45;;;;;;;9.88;6.50;;;;;;;8.59;100.00;101237.19;5032661;28;20048;-85
2020/12/20 06:35:31;;;;;;;12.60;6.95;;;;;;;8.58;100.00;101239.03;5036451;28;20122;-84
2020/12/20 06:37:57;;;;;;;8.65;6.55;;;;;;;8.56;100.00;101232.13;5039251;28;20041;-87
2020/12/20 06:40:29;;;;;;;10.95;7.10;;;;;;;8.54;100.00;101231.41;5029191;28;20047;-84
2020/12/20 06:42:57;;;;;;;12.48;6.90;;;;;;;8.54;100.00;101234.09;5029611;28;20048;-86
2020/12/20 06:45:24;;;;;;;12.93;7.88;;;;;;;8.53;100.00;101232.41;5019134;28;20118;-86
2020/12/20 06:47:52;;;;;;;11.35;6.95;;;;;;;8.52;100.00;101244.09;5034652;28;20049;-85
2020/12/20 06:50:44;;;;;;;11.85;7.28;;;;;;;8.51;100.00;101239.72;5028971;28;20105;-87
2020/12/20 06:53:11;;;;;;;10.43;7.68;;;;;;;8.52;100.00;101241.44;5015769;28;20029;-85
2020/12/20 06:55:36;;;;;;;10.20;7.30;;;;;;;8.50;100.00;101246.06;5035312;28;20167;-85
2020/12/20 06:58:02;;;;;;;12.43;7.65;;;;;;;8.49;100.00;101249.75;5029154;28;20052;-87
2020/12/20 07:00:38;;;;;;;10.30;7.47;;;;;;;8.49;100.00;101247.06;5030662;28;20049;-85
2020/12/20 07:03:04;;;;;;;12.88;7.50;;;;;;;8.47;100.00;101244.50;5030236;28;20045;-84
2020/12/20 07:05:35;;;;;;;14.57;7.18;;;;;;;8.46;100.00;101242.84;5026453;28;20408;-88
2020/12/20 07:08:09;;;;;;;12.10;8.20;;;;;;;8.46;100.00;101245.50;5023031;28;20096;-86
2020/12/20 07:10:45;;;;;;;13.00;8.25;;;;;;;8.46;100.00;101241.97;5028982;28;20053;-86
2020/12/20 07:13:11;;;;;;;10.90;7.50;;;;;;;8.45;100.00;101246.47;5031485;28;20304;-87
2020/12/20 07:15:49;;;;;;;14.05;7.88;;;;;;;8.44;100.00;101252.81;5025067;28;20046;-89
2020/12/20 07:18:44;;;;;;;13.10;8.30;;;;;;;8.44;100.00;101243.97;5031689;28;20069;-88
2020/12/20 07:21:30;;;;;;;16.60;8.27;;;;;;;8.42;100.00;101240.56;5019840;28;20357;-85
2020/12/20 07:24:11;;;;;;;12.75;8.40;;;;;;;8.41;100.00;101244.22;5002583;28;20041;-86
2020/12/20 07:26:36;;;;;;;11.18;7.70;;;;;;;8.41;100.00;101244.22;5030981;28;20514;-86
2020/12/20 07:29:04;;;;;;;13.20;7.78;;;;;;;8.43;100.00;101255.63;5030910;28;20052;-87
2020/12/20 07:31:30;;;;;;;11.93;7.60;;;;;;;8.44;100.00;101265.34;5015678;28;20041;-85
2020/12/20 07:33:57;;;;;;;16.85;7.50;;;;;;;8.48;100.00;101261.41;5033307;28;20049;-86
2020/12/20 07:36:24;;;;;;;9.40;7.13;;;;;;;8.49;100.00;101263.13;5014689;28;20034;-86
2020/12/20 07:38:50;;;;;;;14.65;8.07;;;;;;;8.50;100.00;101264.78;5029917;28;20069;-89
2020/12/20 07:41:18;;;;;;;14.80;8.95;;;;;;;8.52;100.00;101269.03;5035663;28;20437;-86
2020/12/20 07:43:45;;;;;;;13.90;7.18;;;;;;;8.53;100.00;101265.34;5022562;28;20052;-85
2020/12/20 07:46:12;;;;;;;13.57;7.57;;;;;;;8.52;100.00;101262.84;5028065;28;20041;-87
2020/12/20 07:48:38;;;;;;;13.95;8.02;;;;;;;8.57;100.00;101271.25;5028365;28;20057;-86
2020/12/20 07:51:12;;;;;;;12.93;8.85;;;;;;;8.58;100.00;101281.00;5012228;28;20042;-85
2020/12/20 07:54:03;;;;;;;13.18;7.90;;;;;;;8.58;100.00;101268.47;5030499;28;20132;-87
2020/12/20 07:56:37;;;;;;;12.40;7.97;;;;;;;8.61;100.00;101275.38;5030354;28;21570;-87
2020/12/20 07:59:09;;;;;;;12.07;7.63;;;;;;;8.62;100.00;101279.72;5014825;28;20030;-86
2020/12/20 08:01:36;;;;;;;12.80;8.13;;;;;;;8.63;100.00;101284.09;5030341;28;20033;-84
2020/12/20 08:04:05;;;;;;;12.25;8.10;;;;;;;8.68;100.00;101286.34;5028469;28;20038;-87
2020/12/20 08:06:32;;;;;;;14.90;8.05;;;;;;;8.67;100.00;101285.50;5032842;28;20034;-86
2020/12/20 08:09:04;;;;;;;14.60;7.10;;;;;;;8.69;100.00;101280.00;5028263;28;20049;-85
2020/12/20 08:11:31;;;;;;;13.13;8.15;;;;;;;8.70;99.86;101293.25;5027311;28;20108;-86
2020/12/20 08:14:04;;;;;;;12.65;7.53;;;;;;;8.71;99.78;101288.72;5030395;28;20033;-87
2020/12/20 08:16:36;;;;;;;15.23;8.05;;;;;;;8.71;99.97;101284.22;5031552;28;20108;-86
2020/12/20 08:19:14;;;;;;;12.52;8.18;;;;;;;8.74;99.64;101288.44;5027307;28;20278;-84
2020/12/20 08:21:48;;;;;;;14.95;7.95;;;;;;;8.74;99.50;101294.66;5010737;28;20124;-85
2020/12/20 08:24:15;;;;;;;16.55;8.00;;;;;;;8.76;99.79;101291.84;5029072;28;20045;-87
2020/12/20 08:26:42;;;;;;;12.32;7.22;;;;;;;8.74;99.53;101296.47;5024525;28;20038;-87
2020/12/20 08:29:07;;;;;;;12.95;8.15;;;;;;;8.77;99.54;101298.88;5026020;28;20037;-83
2020/12/20 08:31:34;;;;;;;14.00;7.53;;;;;;;8.78;99.42;101293.41;5007674;28;20045;-86
2020/12/20 08:34:01;;;;;;;13.38;7.80;;;;;;;8.80;99.29;101293.25;5008248;28;20515;-86
2020/12/20 08:36:27;;;;;;;13.82;7.70;;;;;;;8.80;99.26;101294.13;5026781;28;20057;-88
2020/12/20 08:38:54;;;;;;;14.07;6.72;;;;;;;8.82;99.27;101291.28;4998845;28;20038;-87
2020/12/20 08:41:22;;;;;;;15.35;7.93;;;;;;;8.85;98.93;101296.34;5030799;28;20033;-85
2020/12/20 08:43:47;;;;;;;12.43;7.03;;;;;;;8.88;98.77;101304.09;5033536;28;20037;-89
2020/12/20 08:46:34;;;;;;;12.20;6.63;;;;;;;8.91;98.86;101300.28;5025503;28;20076;-86
2020/12/20 08:49:29;;;;;;;14.48;7.10;;;;;;;8.93;98.69;101298.34;5012375;28;20042;-86
2020/12/20 08:52:05;;;;;;;12.25;6.50;;;;;;;8.98;98.45;101310.31;4999944;28;20073;-87
2020/12/20 08:54:31;;;;;;;10.90;6.20;;;;;;;9.00;98.18;101305.63;5027015;28;20037;-85
2020/12/20 08:57:02;;;;;;;13.00;6.05;;;;;;;9.04;97.95;101307.06;5000167;28;20052;-86
2020/12/20 08:59:42;;;;;;;13.48;6.65;;;;;;;9.07;97.72;101305.09;5028045;28;20056;-84
2020/12/20 09:02:08;;;;;;;;;;;;;;;9.10;97.56;101308.31;5037637;28;20125;-85
2020/12/20 09:04:37;;;;;;;10.30;6.40;;;;;;;9.04;97.72;101306.22;5018616;28;19959;-86
2020/12/20 09:07:07;;;;;;;;;;;;;;;9.05;97.61;101299.88;5014836;28;20076;-86
2020/12/20 09:09:33;;;;;;;12.48;6.03;;;;;;;9.01;97.94;101307.34;5032330;28;19913;-85
2020/12/20 09:12:17;;;;;;;12.10;7.15;;;;;;;9.04;97.66;101306.22;5035513;28;20041;-87
2020/12/20 09:15:01;;;;;;;15.52;8.10;;;;;;;9.08;97.66;101307.63;5025914;28;20041;-85
2020/12/20 09:17:35;;;;;;;15.88;8.15;;;;;;;9.10;97.33;101311.00;5025614;28;20050;-88
2020/12/20 09:20:04;;;;;;;15.80;7.65;;;;;;;9.12;97.18;101317.06;5024099;28;20046;-85
2020/12/20 09:23:03;;;;;;;13.75;6.80;;;;;;;9.16;96.77;101322.97;5031059;28;20405;-87
2020/12/20 09:25:31;;;;;;;13.52;7.07;;;;;;;9.17;96.71;101328.19;5019308;28;20041;-86
2020/12/20 09:27:59;;;;;;;14.95;7.05;;;;;;;9.18;96.46;101340.59;5032230;28;20060;-85
2020/12/20 09:30:40;;;;;;;12.35;6.68;;;;;;;9.21;96.52;101336.78;5026069;28;20060;-88
2020/12/20 09:33:17;;;;;;;13.30;6.65;;;;;;;9.22;96.38;101338.47;5006603;28;20106;-87
2020/12/20 09:35:55;;;;;;;10.88;6.28;;;;;;;9.25;96.33;101335.50;5026122;28;20060;-86
2020/12/20 09:38:23;;;;;;;13.32;7.20;;;;;;;9.30;96.17;101353.84;5019341;28;20494;-87
2020/12/20 09:40:55;;;;;;;10.73;6.03;;;;;;;9.32;95.63;101346.50;5023651;28;20049;-85
2020/12/20 09:43:20;;;;;;;14.05;6.53;;;;;;;9.36;95.65;101356.78;5046643;28;20422;-87
2020/12/20 09:45:46;;;;;;;10.90;5.85;;;;;;;9.38;95.44;101354.81;5039510;28;20041;-85
2020/12/20 09:48:11;;;;;;;11.52;6.22;;;;;;;9.40;95.14;101357.34;5036877;28;20105;-85
2020/12/20 09:50:37;;;;;;;10.88;6.13;;;;;;;9.42;95.17;101353.53;5030543;28;20042;-87
2020/12/20 09:53:02;;;;;;;13.52;6.18;;;;;;;9.44;94.80;101334.66;5014246;28;20046;-84
2020/12/20 09:55:29;;;;;;;13.00;5.85;;;;;;;9.46;94.52;101333.50;5023421;28;20092;-86
2020/12/20 09:57:57;;;;;;;15.48;5.80;;;;;;;9.46;94.54;101335.34;5021487;28;20045;-85
2020/12/20 10:00:22;;;;;;;12.60;6.05;;;;;;;9.51;94.37;101341.09;5028928;28;20417;-83
2020/12/20 10:02:48;;;;;;;10.77;6.05;;;;;;;9.52;94.27;101340.09;5030061;28;20092;-84
2020/12/20 10:05:13;;;;;;;11.73;5.13;;;;;;;9.53;94.32;101344.50;5031640;28;20048;-85
2020/12/20 10:07:39;;;;;;;13.73;6.00;;;;;;;9.54;94.06;101339.97;5015931;28;20058;-84
2020/12/20 10:10:05;;;;;;;11.88;5.28;;;;;;;9.56;94.12;101346.06;5015008;28;20037;-85
2020/12/20 10:12:32;;;;;;;14.50;5.63;;;;;;;9.57;94.33;101345.03;5017030;28;20045;-84
2020/12/20 10:14:57;;;;;;;14.98;6.68;;;;;;;9.56;94.42;101344.22;5034471;28;20052;-85
2020/12/20 10:17:24;;;;;;;10.65;5.53;;;;;;;9.57;94.25;101345.88;5034935;28;20033;-87
2020/12/20 10:19:50;;;;;;;12.88;5.78;;;;;;;9.58;93.96;101347.59;5031276;28;20053;-89
2020/12/20 10:22:15;;;;;;;12.95;5.47;;;;;;;9.59;94.23;101343.91;5029885;28;20033;-87
2020/12/20 10:24:40;;;;;;;11.57;5.43;;;;;;;9.58;93.69;101342.25;5015684;28;20045;-84
2020/12/20 10:27:06;;;;;;;13.88;5.45;;;;;;;9.61;93.86;101335.72;5014839;28;20038;-86
2020/12/20 10:29:31;;;;;;;13.40;5.43;;;;;;;9.62;94.09;101346.31;5014321;28;20042;-85
2020/12/20 10:31:56;;;;;;;13.75;5.45;;;;;;;9.63;94.12;101339.94;5028124;28;20101;-88
2020/12/20 10:34:22;;;;;;;14.45;5.57;;;;;;;9.64;94.21;101344.34;5029324;28;20041;-86
2020/12/20 10:36:51;;;;;;;13.27;4.70;;;;;;;9.65;93.70;101340.66;5029088;28;20050;-84
2020/12/20 10:39:18;;;;;;;13.80;5.20;;;;;;;9.66;93.99;101334.28;5029358;28;20050;-84
2020/12/20 10:41:43;;;;;;;12.00;4.75;;;;;;;9.67;93.73;101337.84;5033989;28;20034;-84
2020/12/20 10:44:09;;;;;;;11.30;5.10;;;;;;;9.69;93.59;101342.03;5029304;28;20100;-86
2020/12/20 10:46:35;;;;;;;12.25;4.85;;;;;;;9.70;93.78;101341.06;5007667;28;20038;-84
2020/12/20 10:49:03;;;;;;;13.88;5.05;;;;;;;9.72;93.33;101343.59;5028885;28;20505;-84
2020/12/20 10:51:28;;;;;;;15.82;4.95;;;;;;;9.73;93.16;101341.78;5028887;28;20038;-86
2020/12/20 10:53:53;;;;;;;13.93;5.65;;;;;;;9.73;93.49;101331.91;5031789;28;20057;-86
2020/12/20 10:56:19;;;;;;;12.65;4.25;;;;;;;9.73;93.03;101323.03;5034685;28;20041;-85
2020/12/20 10:58:46;;;;;;;17.90;4.28;;;;;;;9.73;92.84;101339.94;5030058;28;20052;-85
2020/12/20 11:01:19;;;;;;;11.27;4.82;;;;;;;9.74;93.06;101335.41;5028041;28;20116;-84
2020/12/20 11:03:48;;;;;;;11.30;5.03;;;;;;;9.75;93.19;101329.06;4995885;28;20505;-88
2020/12/20 11:06:17;;;;;;;9.57;4.30;;;;;;;9.75;92.81;101329.06;5030447;28;20037;-85
2020/12/20 11:08:42;;;;;;;10.52;4.38;;;;;;;9.74;92.75;101324.69;5024743;28;20511;-84
2020/12/20 11:11:08;;;;;;;12.45;4.63;;;;;;;9.75;93.21;101321.03;5029509;28;20312;-86
2020/12/20 11:13:36;;;;;;;11.15;5.03;;;;;;;9.77;93.10;101308.31;5025846;28;20447;-86
2020/12/20 11:16:02;;;;;;;10.65;4.90;;;;;;;9.78;92.84;101320.72;5033133;28;20044;-84
2020/12/20 11:18:27;;;;;;;14.05;4.45;;;;;;;9.76;92.62;101317.38;5018471;28;20045;-87
2020/12/20 11:20:53;;;;;;;13.52;4.93;;;;;;;9.77;92.92;101321.72;5017731;28;20044;-87
2020/12/20 11:23:18;;;;;;;12.05;3.95;;;;;;;9.77;92.73;101319.03;5014992;28;20033;-86
2020/12/20 11:25:43;;;;;;;14.02;4.85;;;;;;;9.77;92.87;101325.25;4999443;28;20041;-85
2020/12/20 11:28:09;;;;;;;11.15;4.75;;;;;;;9.78;93.30;101323.41;5031226;28;20049;-85
2020/12/20 11:30:34;;;;;;;13.00;4.78;;;;;;;9.76;92.85;101317.38;5002030;28;20096;-85
2020/12/20 11:32:59;;;;;;;11.50;4.80;;;;;;;9.76;93.13;101322.72;5033847;28;20501;-85